WBSB/BWN METAR and TAF weather

Enter ICAO airport designator
Station Type Date Time Source
WBSB METAR 2020/12/06 01:30 UTC NOAA

WBSB 060130Z 16003KT 9999 FEW007 FEW016CB BKN140 28/24 Q1009 NOSIG


Station Type Date Time Source
WBSB Decoded METAR 2020/12/06 01:30 UTC NOAA

Brunei Airport, Brunei (WBSB) 04-56N 114-56E 15M
Dec 05, 2020 - 08:30 PM EST / 2020.12.06 0130 UTC
Wind: from the SSE (160 degrees) at 3 MPH (3 KT):0
Visibility: greater than 7 mile(s):0
Sky conditions: mostly cloudy
Weather: Cumulonimbus clouds observed
Temperature: 82 F (28 C)
Dew Point: 75 F (24 C)
Relative Humidity: 78%
Pressure (altimeter): 29.80 in. Hg (1009 hPa)
ob: WBSB 060130Z 16003KT 9999 FEW007 FEW016CB BKN140 28/24 Q1009 NOSIG
cycle: 1

Station Type Date Time Source
WBSB TAF 2020/12/05 18:11 UTC NOAA

TAF WBSB 051700Z 0518/0700 20005KT 9999 SCT014 FEW015CB
TEMPO 0518/0522 6000 SHRA TSRA
BECMG 0603/0605 26008KT FEW015 FEW016CB

Example: see airport list